Time;durP1;ratioP1;P1;durP2;ratioP2;P2;SDS_P1;SDS_P2;PMS_P1;PMS_P2;Temp;Humidity;BMP_temperature;BMP_pressure;BME280_temperature;BME280_humidity;BME280_pressure;Samples;Min_cycle;Max_cycle;Signal;HPM_P1;HPM_P2
2022/10/19 00:03:01;;;;;;;4.95;3.80;;;;;;;11.74;100.00;101123.31;10536766;28;20048;-69
2022/10/19 00:08:02;;;;;;;5.00;4.22;;;;;;;11.45;100.00;101067.72;10538137;28;20052;-69
2022/10/19 00:13:03;;;;;;;5.38;4.43;;;;;;;11.39;100.00;101055.88;10536966;28;20075;-69
2022/10/19 00:18:03;;;;;;;5.43;4.55;;;;;;;11.90;100.00;101132.44;10538191;28;20052;-69
2022/10/19 00:23:04;;;;;;;4.93;4.43;;;;;;;11.90;100.00;101130.59;10537445;28;20039;-69
2022/10/19 00:28:05;;;;;;;7.30;5.00;;;;;;;11.44;100.00;101050.09;10537947;28;20044;-69
2022/10/19 00:33:06;;;;;;;5.50;4.88;;;;;;;11.88;100.00;101114.78;10538261;28;20107;-69
2022/10/19 00:38:06;;;;;;;6.50;5.30;;;;;;;11.61;100.00;101073.19;10537521;28;20056;-69
2022/10/19 00:43:29;;;;;;;7.03;6.32;;;;;;;11.76;100.00;101108.03;10538087;28;20513;-69
2022/10/19 00:48:32;;;;;;;7.10;5.65;;;;;;;11.03;100.00;100983.31;10542603;28;20040;-69
2022/10/19 00:53:34;;;;;;;7.05;6.35;;;;;;;11.79;100.00;101090.91;10546756;28;20036;-69
2022/10/19 00:58:35;;;;;;;7.53;6.10;;;;;;;11.54;100.00;101047.34;10546314;28;20046;-70
2022/10/19 01:03:37;;;;;;;7.07;6.07;;;;;;;11.84;100.00;101086.75;10544706;28;20036;-69
2022/10/19 01:08:38;;;;;;;7.03;5.57;;;;;;;11.62;100.00;101047.41;10543666;28;20044;-70
2022/10/19 01:14:06;;;;;;;6.85;6.15;;;;;;;11.77;100.00;101068.94;10545313;28;20421;-70
2022/10/19 01:19:41;;;;;;;7.07;6.10;;;;;;;11.69;100.00;101071.53;10544948;28;20051;-69
2022/10/19 01:25:08;;;;;;;6.97;6.13;;;;;;;11.40;100.00;101020.31;10545305;28;20134;-69
2022/10/19 01:30:25;;;;;;;6.72;6.03;;;;;;;11.38;100.00;101027.63;10544579;28;20036;-69
2022/10/19 01:35:40;;;;;;;7.72;6.50;;;;;;;10.70;100.00;100899.88;10544699;28;20117;-69
2022/10/19 01:40:59;;;;;;;;;;;;;;;11.81;100.00;101064.94;10544945;28;20048;-69
2022/10/19 01:46:17;;;;;;;8.13;6.57;;;;;;;11.55;100.00;101043.69;10543794;28;19916;-71
2022/10/19 01:51:24;;;;;;;7.03;6.30;;;;;;;11.26;100.00;100999.63;10544497;28;20495;-70
2022/10/19 01:56:28;;;;;;;9.25;5.90;;;;;;;11.44;100.00;101044.78;10543685;28;20403;-69
2022/10/19 02:01:32;;;;;;;7.70;6.90;;;;;;;11.50;100.00;101056.63;10542119;28;20097;-69
2022/10/19 02:06:34;;;;;;;9.05;7.80;;;;;;;11.57;100.00;101049.69;10542799;28;20055;-69
2022/10/19 02:11:36;;;;;;;9.05;7.30;;;;;;;11.55;100.00;101038.38;10541215;28;20043;-70
2022/10/19 02:17:03;;;;;;;11.60;7.63;;;;;;;11.55;100.00;101028.56;10542623;28;20039;-69
2022/10/19 02:22:03;;;;;;;8.82;7.93;;;;;;;11.04;100.00;100947.78;10542147;28;20043;-69
2022/10/19 02:27:06;;;;;;;9.15;7.82;;;;;;;11.00;100.00;100930.47;10542968;28;20043;-71
2022/10/19 02:32:08;;;;;;;55.47;9.07;;;;;;;11.17;100.00;100960.66;10540874;28;20080;-70
2022/10/19 02:37:09;;;;;;;13.27;10.73;;;;;;;11.18;100.00;100954.34;10526892;28;20052;-69
2022/10/19 02:42:24;;;;;;;15.50;10.13;;;;;;;11.22;100.00;100944.22;10541628;28;20113;-70
2022/10/19 02:47:31;;;;;;;13.75;11.68;;;;;;;11.59;100.00;101011.28;10541578;28;20039;-70
2022/10/19 02:52:31;;;;;;;13.90;10.75;;;;;;;11.41;100.00;100976.75;10541055;28;20123;-70
2022/10/19 02:57:32;;;;;;;15.57;10.85;;;;;;;11.41;100.00;100978.59;10541336;28;20520;-70
2022/10/19 03:02:33;;;;;;;15.65;10.90;;;;;;;11.07;100.00;100939.50;10539956;28;20419;-69
2022/10/19 03:07:34;;;;;;;14.05;12.40;;;;;;;11.40;100.00;100979.59;10540078;28;20056;-69
2022/10/19 03:12:35;;;;;;;33.35;12.18;;;;;;;11.42;100.00;100978.41;10540171;28;20044;-69
2022/10/19 03:17:36;;;;;;;20.23;11.73;;;;;;;11.28;100.00;100943.63;10540208;28;20036;-70
2022/10/19 03:22:37;;;;;;;18.58;13.35;;;;;;;10.96;100.00;100911.34;10540641;28;20519;-69
2022/10/19 03:27:37;;;;;;;23.70;13.90;;;;;;;11.33;100.00;100981.19;10540031;28;20077;-69
2022/10/19 03:32:38;;;;;;;22.48;13.00;;;;;;;11.27;100.00;100977.34;10539612;28;20097;-69
2022/10/19 03:37:39;;;;;;;18.65;13.32;;;;;;;11.23;100.00;100964.53;10538838;28;20431;-69
2022/10/19 03:42:40;;;;;;;19.27;14.75;;;;;;;11.30;100.00;100962.91;10539028;28;20047;-69
2022/10/19 03:47:40;;;;;;;16.77;13.32;;;;;;;10.70;100.00;100850.22;10539160;28;20456;-69
2022/10/19 03:52:42;;;;;;;28.88;14.07;;;;;;;11.39;100.00;100953.97;10522362;28;20087;-69
2022/10/19 03:57:42;;;;;;;20.13;13.73;;;;;;;11.43;100.00;100948.19;10538507;28;20086;-71
2022/10/19 04:02:43;;;;;;;19.65;14.57;;;;;;;11.36;100.00;100922.38;10537699;28;20415;-71
2022/10/19 04:07:44;;;;;;;19.13;14.02;;;;;;;11.49;100.00;100946.72;10538677;28;20060;-69
2022/10/19 04:12:45;;;;;;;18.92;13.98;;;;;;;11.42;100.00;100935.84;10538228;28;20495;-69
2022/10/19 04:17:45;;;;;;;14.77;13.27;;;;;;;11.33;100.00;100920.03;10537321;28;20047;-68
2022/10/19 04:22:46;;;;;;;17.92;12.82;;;;;;;11.00;100.00;100881.78;10536814;28;20032;-68
2022/10/19 04:27:47;;;;;;;19.25;12.30;;;;;;;11.43;100.00;100940.19;10537115;28;20036;-68
2022/10/19 04:32:48;;;;;;;15.50;13.77;;;;;;;10.70;100.00;100812.19;10536606;28;20051;-69
2022/10/19 04:37:48;;;;;;;22.02;13.05;;;;;;;10.71;100.00;100811.22;10536960;28;20040;-69
2022/10/19 04:42:49;;;;;;;15.52;12.50;;;;;;;11.50;100.00;100921.78;10536704;28;20063;-70
2022/10/19 04:47:50;;;;;;;20.70;13.68;;;;;;;11.20;100.00;100873.41;10536669;28;20051;-68
2022/10/19 04:52:51;;;;;;;18.98;14.50;;;;;;;11.30;100.00;100888.41;10536192;28;20047;-69
2022/10/19 04:57:51;;;;;;;20.30;14.70;;;;;;;11.30;100.00;100917.69;10535271;28;20052;-69
2022/10/19 05:02:52;;;;;;;23.15;14.93;;;;;;;11.25;100.00;100910.19;10535953;28;20471;-69
2022/10/19 05:07:53;;;;;;;20.42;15.88;;;;;;;11.14;100.00;100902.47;10537906;28;20073;-69
2022/10/19 05:12:54;;;;;;;21.92;15.30;;;;;;;11.22;100.00;100926.47;10535983;28;20032;-69
2022/10/19 05:17:55;;;;;;;21.95;16.58;;;;;;;11.18;100.00;100912.63;10552600;28;20479;-69
2022/10/19 05:22:56;;;;;;;22.40;16.58;;;;;;;11.07;100.00;100878.34;10536367;28;20067;-69
2022/10/19 05:27:56;;;;;;;33.63;17.58;;;;;;;10.84;100.00;100830.22;10552480;28;20379;-69
2022/10/19 05:32:57;;;;;;;23.02;17.40;;;;;;;11.39;100.00;100893.59;10538556;28;20035;-69
2022/10/19 05:37:58;;;;;;;25.67;18.95;;;;;;;10.58;100.00;100749.69;10544937;28;20119;-69
2022/10/19 05:42:59;;;;;;;28.38;19.67;;;;;;;11.53;100.00;100891.34;10560337;28;20028;-69
2022/10/19 05:48:00;;;;;;;31.38;21.25;;;;;;;11.60;100.00;100892.38;10543850;28;20396;-69
2022/10/19 05:53:00;;;;;;;26.83;18.90;;;;;;;11.43;100.00;100860.41;10543536;28;20028;-69
2022/10/19 05:58:01;;;;;;;26.40;18.77;;;;;;;11.30;100.00;100824.59;10542568;28;20044;-69
2022/10/19 06:03:02;;;;;;;25.98;17.77;;;;;;;11.29;100.00;100791.84;10543006;28;20135;-68
2022/10/19 06:08:03;;;;;;;28.98;18.50;;;;;;;11.35;100.00;100793.84;10544087;28;20044;-70
2022/10/19 06:13:04;;;;;;;27.42;18.15;;;;;;;11.67;100.00;100856.16;10542772;28;20502;-68
2022/10/19 06:18:06;;;;;;;29.80;20.02;;;;;;;11.23;100.00;100776.53;10542400;28;20042;-68
2022/10/19 06:23:08;;;;;;;31.95;20.92;;;;;;;11.70;100.00;100841.69;10543525;28;20078;-69
2022/10/19 06:28:08;;;;;;;33.53;20.30;;;;;;;11.55;100.00;100817.53;10542501;28;20485;-69
2022/10/19 06:33:09;;;;;;;33.08;22.17;;;;;;;11.67;100.00;100816.22;10542016;28;20115;-68
2022/10/19 06:38:12;;;;;;;33.97;18.95;;;;;;;11.75;100.00;100826.88;10542632;28;20046;-68
2022/10/19 06:43:13;;;;;;;31.05;19.35;;;;;;;11.59;100.00;100789.59;10541742;28;20032;-70
2022/10/19 06:48:14;;;;;;;27.42;19.20;;;;;;;11.71;100.00;100784.78;10542104;28;20079;-69
2022/10/19 06:53:15;;;;;;;27.05;20.90;;;;;;;11.52;100.00;100744.19;10540639;28;20055;-69
2022/10/19 06:58:15;;;;;;;26.58;19.20;;;;;;;11.85;100.00;100787.66;10540851;28;20498;-68
2022/10/19 07:03:16;;;;;;;26.48;19.25;;;;;;;11.99;100.00;100785.31;10540675;28;20062;-68
2022/10/19 07:08:17;;;;;;;31.02;19.95;;;;;;;11.93;100.00;100751.38;10540238;28;20077;-68
2022/10/19 07:13:18;;;;;;;30.13;20.58;;;;;;;11.90;100.00;100754.38;10541245;28;20131;-69
2022/10/19 07:18:19;;;;;;;34.78;22.80;;;;;;;12.01;100.00;100754.06;10541029;28;20035;-68
2022/10/19 07:23:20;;;;;;;32.08;21.05;;;;;;;11.77;100.00;100683.00;10539264;28;20028;-68
2022/10/19 07:28:21;;;;;;;28.85;19.42;;;;;;;12.11;100.00;100725.41;10539662;28;20111;-68
2022/10/19 07:33:22;;;;;;;28.38;19.85;;;;;;;12.11;100.00;100706.75;10540105;28;20060;-70
2022/10/19 07:38:23;;;;;;;31.00;20.25;;;;;;;12.26;100.00;100715.72;10538505;28;20097;-68
2022/10/19 07:43:23;;;;;;;28.33;19.63;;;;;;;11.97;100.00;100691.50;10539025;28;20487;-68
2022/10/19 07:48:24;;;;;;;30.45;18.60;;;;;;;12.11;100.00;100685.44;10539447;28;20036;-68
2022/10/19 07:53:25;;;;;;;33.35;20.17;;;;;;;11.95;100.00;100635.75;10538777;28;20111;-69
2022/10/19 07:58:26;;;;;;;22.92;17.33;;;;;;;12.47;100.00;100695.69;10537196;28;20038;-68
2022/10/19 08:03:26;;;;;;;24.33;18.10;;;;;;;12.22;100.00;100647.00;10538920;28;20036;-71
2022/10/19 08:08:27;;;;;;;28.95;18.83;;;;;;;11.80;100.00;100585.00;10539318;28;20428;-68
2022/10/19 08:13:28;;;;;;;24.33;17.67;;;;;;;11.69;100.00;100569.38;10539150;28;20046;-69
2022/10/19 08:18:29;;;;;;;22.45;15.15;;;;;;;11.86;100.00;100571.03;10538713;28;20035;-69
2022/10/19 08:23:30;;;;;;;22.10;15.60;;;;;;;12.60;100.00;100661.34;10536592;28;20024;-68
2022/10/19 08:28:31;;;;;;;19.08;14.32;;;;;;;11.99;100.00;100537.72;10537663;28;20036;-68
2022/10/19 08:33:32;;;;;;;17.63;13.77;;;;;;;12.34;100.00;100574.50;10538509;28;20043;-68
2022/10/19 08:38:34;;;;;;;18.60;13.00;;;;;;;12.69;100.00;100603.50;10536823;28;20049;-68
2022/10/19 08:43:41;;;;;;;16.65;12.65;;;;;;;12.87;100.00;100617.38;10539144;28;20031;-69
2022/10/19 08:48:42;;;;;;;19.60;13.00;;;;;;;12.83;100.00;100585.91;10537700;28;20036;-68
2022/10/19 08:53:56;;;;;;;23.98;13.43;;;;;;;13.17;98.65;100598.84;10537618;28;20039;-69
2022/10/19 08:59:01;;;;;;;16.10;12.02;;;;;;;12.62;98.86;100478.09;10536322;28;20039;-68
2022/10/19 09:04:16;;;;;;;17.00;12.43;;;;;;;13.28;96.38;100563.75;10537046;28;20040;-71
2022/10/19 09:09:19;;;;;;;20.08;11.77;;;;;;;13.52;97.54;100565.38;10541433;28;20040;-69
2022/10/19 09:14:28;;;;;;;16.47;12.13;;;;;;;13.43;96.41;100542.44;10545507;28;20031;-70
2022/10/19 09:19:30;;;;;;;21.58;12.77;;;;;;;13.73;96.96;100558.47;10545829;28;20406;-68
2022/10/19 09:24:49;;;;;;;19.92;11.07;;;;;;;13.86;96.89;100546.16;10560933;28;20063;-68
2022/10/19 09:29:53;;;;;;;12.90;10.60;;;;;;;13.85;96.80;100543.66;10544977;28;20032;-69
2022/10/19 09:35:00;;;;;;;15.13;11.05;;;;;;;13.86;95.49;100537.31;10543743;28;20035;-69
2022/10/19 09:40:00;;;;;;;12.40;8.73;;;;;;;13.50;95.56;100478.50;10544108;28;20111;-69
2022/10/19 09:45:16;;;;;;;14.32;7.38;;;;;;;14.01;92.97;100521.28;10543977;28;20122;-68
2022/10/19 09:50:21;;;;;;;11.15;7.00;;;;;;;13.93;94.86;100511.53;10544838;28;20135;-69
2022/10/19 09:55:34;;;;;;;10.98;6.90;;;;;;;13.52;94.33;100445.28;10544362;28;20032;-68
2022/10/19 10:00:41;;;;;;;8.80;6.65;;;;;;;13.49;94.53;100424.31;10543037;28;20166;-68
2022/10/19 10:05:47;;;;;;;7.93;6.22;;;;;;;14.05;94.01;100504.69;10542598;28;20463;-69
2022/10/19 10:10:57;;;;;;;7.68;5.43;;;;;;;13.50;93.46;100393.94;10543415;28;20086;-68
2022/10/19 10:16:04;;;;;;;6.88;4.90;;;;;;;13.74;93.51;100413.31;10542052;28;20032;-69
2022/10/19 10:21:18;;;;;;;6.20;5.15;;;;;;;14.17;92.51;100459.63;10540509;28;20032;-68
2022/10/19 10:26:19;;;;;;;6.15;5.15;;;;;;;14.18;93.41;100428.38;10542226;28;20053;-69
2022/10/19 10:31:24;;;;;;;6.63;4.40;;;;;;;14.30;91.92;100426.88;10542227;28;20057;-69
2022/10/19 10:36:28;;;;;;;6.88;4.35;;;;;;;14.48;91.75;100439.78;10543119;28;20024;-69
2022/10/19 10:41:35;;;;;;;7.90;4.80;;;;;;;14.50;91.85;100421.72;10557523;28;20028;-69
2022/10/19 10:47:07;;;;;;;7.65;4.28;;;;;;;14.61;92.21;100424.72;10542516;28;20032;-68
2022/10/19 10:52:17;;;;;;;6.85;4.32;;;;;;;14.50;91.82;100382.44;10540391;28;20048;-69
2022/10/19 10:57:22;;;;;;;4.80;3.72;;;;;;;14.48;91.32;100375.63;10541834;28;20035;-69
2022/10/19 11:02:35;;;;;;;12.48;4.25;;;;;;;14.26;91.42;100316.03;10540806;28;20036;-69
2022/10/19 11:07:43;;;;;;;5.78;4.00;;;;;;;14.60;91.57;100369.63;10541366;28;20048;-69
2022/10/19 11:12:49;;;;;;;5.20;3.80;;;;;;;14.22;91.36;100298.75;10541520;28;20059;-68
2022/10/19 11:18:04;;;;;;;5.10;3.85;;;;;;;13.93;91.40;100212.41;10540740;28;20040;-69
2022/10/19 11:23:24;;;;;;;4.47;3.28;;;;;;;15.04;90.45;100367.66;10539433;28;20578;-69
2022/10/19 11:29:15;;;;;;;5.93;3.47;;;;;;;15.21;89.56;100360.97;10540945;28;20024;-69
2022/10/19 11:34:22;;;;;;;5.13;3.53;;;;;;;14.97;90.38;100329.34;10530009;28;20047;-69
2022/10/19 11:39:57;;;;;;;5.38;3.60;;;;;;;15.26;89.62;100355.03;10540948;28;20093;-69
2022/10/19 11:45:19;;;;;;;5.47;3.85;;;;;;;15.21;89.20;100349.44;10539471;28;20455;-69
2022/10/19 11:50:25;;;;;;;4.07;2.75;;;;;;;15.18;88.96;100356.00;10540233;28;20032;-71
2022/10/19 11:55:32;;;;;;;4.25;2.70;;;;;;;14.94;88.75;100278.91;10539921;28;20464;-69
2022/10/19 12:00:50;;;;;;;3.10;2.08;;;;;;;15.30;87.66;100316.13;10534795;28;20139;-67
2022/10/19 12:06:09;;;;;;;7.57;2.22;;;;;;;15.48;88.21;100326.28;10501608;28;20400;-69
2022/10/19 12:11:32;;;;;;;6.80;2.40;;;;;;;15.53;87.42;100326.53;10521102;28;20040;-70
2022/10/19 12:16:44;;;;;;;4.63;2.10;;;;;;;14.55;87.81;100171.56;10514036;28;20538;-69
2022/10/19 12:21:46;;;;;;;4.75;2.00;;;;;;;15.41;88.84;100312.06;10512418;28;20139;-68
2022/10/19 12:26:49;;;;;;;5.85;1.95;;;;;;;15.10;88.49;100259.03;10531126;28;20040;-68
2022/10/19 12:31:52;;;;;;;7.60;1.95;;;;;;;15.50;88.10;100322.38;10537271;28;20044;-68
2022/10/19 12:37:10;;;;;;;5.55;2.00;;;;;;;15.49;88.11;100310.00;10534619;28;20039;-70
2022/10/19 12:42:39;;;;;;;4.65;2.00;;;;;;;15.48;88.25;100305.69;10526502;28;20048;-71
2022/10/19 12:48:00;;;;;;;3.88;1.67;;;;;;;15.18;89.30;100288.28;10535977;28;20082;-72
2022/10/19 12:53:00;;;;;;;6.82;2.22;;;;;;;15.18;89.57;100282.94;10537282;28;20518;-72
2022/10/19 12:58:05;;;;;;;4.45;1.80;;;;;;;15.16;90.27;100283.13;10535883;28;20036;-69
2022/10/19 13:03:20;;;;;;;4.05;1.73;;;;;;;15.21;88.69;100277.19;10535758;28;20043;-70
2022/10/19 13:08:39;;;;;;;5.07;1.77;;;;;;;14.64;88.84;100182.09;10510453;28;20512;-72
2022/10/19 13:14:01;;;;;;;4.43;1.90;;;;;;;15.02;89.06;100252.00;10519165;28;20070;-69
2022/10/19 13:19:14;;;;;;;6.35;1.70;;;;;;;15.03;89.97;100248.28;10532523;28;20059;-69
2022/10/19 13:24:23;;;;;;;17.13;4.03;;;;;;;15.01;91.78;100245.81;10535323;28;20048;-70
2022/10/19 13:29:36;;;;;;;4.60;1.70;;;;;;;14.97;90.33;100241.88;10534523;28;20040;-70
2022/10/19 13:34:37;;;;;;;6.03;2.00;;;;;;;14.69;90.67;100193.84;10531805;28;20047;-70
2022/10/19 13:39:38;;;;;;;6.93;2.13;;;;;;;14.64;91.31;100188.25;10533145;28;20048;-69
2022/10/19 13:44:46;;;;;;;4.75;1.92;;;;;;;14.73;91.18;100221.81;10535437;28;20182;-69
2022/10/19 13:49:56;;;;;;;12.25;2.55;;;;;;;14.01;92.17;100124.16;10535676;28;20036;-70
2022/10/19 13:55:31;;;;;;;4.53;2.42;;;;;;;14.52;93.33;100208.56;10539024;28;20043;-70
2022/10/19 14:00:47;;;;;;;13.50;2.90;;;;;;;14.31;95.08;100194.22;10488295;28;20109;-68
2022/10/19 14:05:58;;;;;;;13.60;3.00;;;;;;;13.99;95.54;100192.13;10501303;28;20559;-68
2022/10/19 14:11:05;;;;;;;8.93;2.85;;;;;;;13.66;97.03;100171.31;10510096;28;20044;-70
2022/10/19 14:16:16;;;;;;;13.35;3.00;;;;;;;13.39;97.45;100167.59;10541536;28;20484;-68
2022/10/19 14:21:32;;;;;;;3.63;2.20;;;;;;;13.08;100.00;100157.19;10543503;28;20047;-68
2022/10/19 14:26:34;;;;;;;20.67;2.90;;;;;;;12.73;99.45;100160.47;10558764;28;20466;-68
2022/10/19 14:31:36;;;;;;;8.00;2.45;;;;;;;12.47;100.00;100162.81;10519354;28;20047;-69
2022/10/19 14:36:41;;;;;;;8.75;3.08;;;;;;;12.25;100.00;100167.22;10534903;28;20135;-68
2022/10/19 14:41:44;;;;;;;20.92;3.17;;;;;;;11.96;100.00;100158.19;10541853;28;20032;-70
2022/10/19 14:46:47;;;;;;;10.45;3.45;;;;;;;11.91;100.00;100154.44;10541707;28;20047;-68
2022/10/19 14:51:53;;;;;;;9.05;2.95;;;;;;;11.66;100.00;100139.47;10541741;28;20436;-68
2022/10/19 14:57:00;;;;;;;12.05;3.63;;;;;;;11.07;100.00;100064.84;10540290;28;20135;-68
2022/10/19 15:02:10;;;;;;;10.85;3.50;;;;;;;10.91;100.00;100054.31;10540565;28;20092;-68
2022/10/19 15:07:42;;;;;;;14.45;3.65;;;;;;;11.38;100.00;100131.25;10540462;28;20059;-70
2022/10/19 15:12:43;;;;;;;18.45;7.72;;;;;;;11.01;100.00;100084.16;10532696;28;20060;-70
2022/10/19 15:17:51;;;;;;;22.15;7.60;;;;;;;10.95;100.00;100103.47;10512167;28;20114;-71
2022/10/19 15:22:53;;;;;;;18.13;8.40;;;;;;;10.85;100.00;100116.97;10539973;28;20043;-69
2022/10/19 15:27:54;;;;;;;12.45;5.60;;;;;;;10.69;100.00;100117.09;10540432;28;20094;-71
2022/10/19 15:33:01;;;;;;;11.18;4.10;;;;;;;10.65;100.00;100129.88;10539782;28;20044;-70
2022/10/19 15:38:13;;;;;;;11.77;5.63;;;;;;;10.43;100.00;100126.16;10539160;28;20047;-69
2022/10/19 15:43:29;;;;;;;14.80;5.32;;;;;;;10.36;100.00;100125.19;10539658;28;20028;-69
2022/10/19 15:49:14;;;;;;;10.82;5.10;;;;;;;10.32;100.00;100120.38;10539435;28;20044;-67
2022/10/19 15:54:17;;;;;;;15.57;5.82;;;;;;;9.71;100.00;100032.47;10494406;28;20078;-69
2022/10/19 15:59:20;;;;;;;22.50;8.37;;;;;;;9.95;100.00;100072.19;10534945;28;20043;-68
2022/10/19 16:04:21;;;;;;;84.22;33.15;;;;;;;9.35;100.00;99985.16;10531701;28;20052;-67
2022/10/19 16:09:22;;;;;;;66.43;26.85;;;;;;;8.83;100.00;99928.13;10534262;28;20080;-67
2022/10/19 16:14:25;;;;;;;64.07;27.25;;;;;;;8.98;100.00;99965.34;10536955;28;20890;-68
2022/10/19 16:19:26;;;;;;;68.65;26.58;;;;;;;9.66;100.00;100106.41;10527466;28;20036;-68
2022/10/19 16:24:26;;;;;;;42.45;19.05;;;;;;;9.35;100.00;100056.75;10527913;28;20552;-67
2022/10/19 16:29:27;;;;;;;27.92;13.35;;;;;;;9.51;100.00;100080.59;10529945;28;20044;-69
2022/10/19 16:34:28;;;;;;;28.30;13.05;;;;;;;8.89;100.00;99995.50;10529760;28;20044;-67
2022/10/19 16:39:29;;;;;;;31.73;11.93;;;;;;;9.29;100.00;100081.25;10534673;28;20122;-69
2022/10/19 16:44:30;;;;;;;27.85;11.93;;;;;;;9.22;100.00;100075.81;10531340;28;20071;-68
2022/10/19 16:49:31;;;;;;;47.90;18.40;;;;;;;9.06;100.00;100073.13;10531563;28;20131;-68
2022/10/19 16:54:32;;;;;;;29.48;13.98;;;;;;;8.39;100.00;99965.47;10534558;28;20062;-68
2022/10/19 16:59:32;;;;;;;36.53;14.40;;;;;;;8.98;100.00;100071.31;10535087;28;20055;-70
2022/10/19 17:04:33;;;;;;;23.58;11.95;;;;;;;8.72;100.00;100033.56;10537463;28;20060;-67
2022/10/19 17:09:34;;;;;;;28.02;11.43;;;;;;;8.40;100.00;100003.38;10537428;28;20070;-67
2022/10/19 17:14:38;;;;;;;23.13;11.60;;;;;;;8.80;100.00;100070.66;10535150;28;20040;-67
2022/10/19 17:19:39;;;;;;;20.73;13.57;;;;;;;8.60;100.00;100041.78;10535769;28;20117;-68
2022/10/19 17:24:40;;;;;;;21.38;13.27;;;;;;;8.83;100.00;100057.91;10535908;28;20085;-68
2022/10/19 17:29:41;;;;;;;25.77;12.15;;;;;;;8.86;100.00;100056.75;10518602;28;20083;-68
2022/10/19 17:34:41;;;;;;;18.92;12.02;;;;;;;8.43;100.00;99972.09;10503194;28;20071;-67
2022/10/19 17:39:42;;;;;;;20.30;12.27;;;;;;;8.82;100.00;100028.91;10519829;28;20047;-68
2022/10/19 17:44:43;;;;;;;22.52;12.45;;;;;;;8.66;100.00;100003.25;10520680;28;20081;-68
2022/10/19 17:49:44;;;;;;;26.13;13.00;;;;;;;8.72;100.00;100020.31;10520155;28;20068;-69
2022/10/19 17:54:45;;;;;;;28.55;12.27;;;;;;;8.21;100.00;99951.53;10519830;28;20048;-68
2022/10/19 17:59:45;;;;;;;32.90;12.23;;;;;;;8.54;100.00;100021.25;10522330;28;20040;-69
2022/10/19 18:04:46;;;;;;;15.23;10.75;;;;;;;8.44;100.00;99999.41;10521694;28;20048;-69
2022/10/19 18:09:47;;;;;;;21.83;10.70;;;;;;;8.45;100.00;100001.88;10519272;28;20032;-71
2022/10/19 18:14:48;;;;;;;16.63;9.43;;;;;;;8.52;100.00;100017.94;10515760;28;20090;-70
2022/10/19 18:19:48;;;;;;;16.92;8.57;;;;;;;8.56;100.00;100011.34;10526105;28;20036;-69
2022/10/19 18:24:49;;;;;;;18.17;8.32;;;;;;;8.05;100.00;99923.22;10519975;28;20097;-70
2022/10/19 18:29:50;;;;;;;11.98;8.10;;;;;;;8.58;100.00;100006.69;10519402;28;20114;-69
2022/10/19 18:34:51;;;;;;;16.42;8.18;;;;;;;8.66;100.00;99987.34;10522565;28;20043;-69
2022/10/19 18:39:51;;;;;;;11.70;7.88;;;;;;;8.77;100.00;99988.88;10523606;28;20052;-70
2022/10/19 18:44:52;;;;;;;16.08;9.07;;;;;;;8.04;100.00;99850.13;10541211;28;20044;-70
2022/10/19 18:49:53;;;;;;;14.57;9.07;;;;;;;8.90;100.00;99960.88;10542626;28;20044;-69
2022/10/19 18:54:54;;;;;;;14.90;9.10;;;;;;;9.02;100.00;99953.41;10541827;28;20036;-71
2022/10/19 18:59:55;;;;;;;16.98;9.50;;;;;;;9.23;100.00;99952.88;10539335;28;20032;-71
2022/10/19 19:04:56;;;;;;;20.00;10.65;;;;;;;8.74;100.00;99851.50;10540699;28;20056;-71
2022/10/19 19:09:57;;;;;;;11.60;9.00;;;;;;;9.01;100.00;99880.25;10540688;28;20097;-70
2022/10/19 19:14:57;;;;;;;17.20;12.73;;;;;;;9.28;100.00;99907.34;10532638;28;20075;-69
2022/10/19 19:19:58;;;;;;;15.35;12.38;;;;;;;9.48;100.00;99923.66;10521563;28;20122;-69
2022/10/19 19:24:59;;;;;;;16.02;12.15;;;;;;;9.63;100.00;99921.13;10511960;28;20044;-70
2022/10/19 19:30:03;;;;;;;27.40;11.55;;;;;;;9.18;100.00;99846.56;10496754;28;20115;-69
2022/10/19 19:35:04;;;;;;;23.83;12.07;;;;;;;9.31;100.00;99864.59;10538600;28;20052;-69
2022/10/19 19:40:05;;;;;;;14.40;11.57;;;;;;;9.35;100.00;99876.47;10538381;28;20454;-69
2022/10/19 19:45:07;;;;;;;20.25;12.98;;;;;;;10.01;100.00;99970.69;10538664;28;20051;-69
2022/10/19 19:50:08;;;;;;;18.50;12.43;;;;;;;9.27;100.00;99848.19;10539285;28;20051;-70
2022/10/19 19:55:08;;;;;;;17.75;13.85;;;;;;;9.94;100.00;99942.38;10539336;28;20043;-69
2022/10/19 20:00:10;;;;;;;21.38;12.88;;;;;;;9.84;100.00;99924.00;10553986;28;20040;-69
2022/10/19 20:05:11;;;;;;;19.08;14.80;;;;;;;10.11;100.00;99945.75;10538946;28;20059;-69
2022/10/19 20:10:14;;;;;;;23.90;15.27;;;;;;;9.68;100.00;99849.81;10536771;28;20050;-69
2022/10/19 20:15:17;;;;;;;19.90;14.20;;;;;;;10.13;100.00;99909.25;10538734;28;20060;-69
2022/10/19 20:20:18;;;;;;;22.60;14.90;;;;;;;10.01;100.00;99883.09;10536360;28;20294;-69
2022/10/19 20:25:19;;;;;;;27.38;19.00;;;;;;;10.36;100.00;99934.03;10538593;28;20451;-70
2022/10/19 20:30:19;;;;;;;27.90;19.70;;;;;;;10.27;100.00;99887.28;10537758;28;20044;-69
2022/10/19 20:35:20;;;;;;;29.67;20.65;;;;;;;9.92;100.00;99820.50;10537608;28;20043;-70
2022/10/19 20:40:21;;;;;;;27.23;18.13;;;;;;;10.52;100.00;99904.69;10538008;28;20040;-69
2022/10/19 20:45:22;;;;;;;31.60;20.55;;;;;;;10.50;100.00;99893.44;10535812;28;20070;-69
2022/10/19 20:50:22;;;;;;;30.70;21.70;;;;;;;10.27;100.00;99845.63;10538032;28;20517;-69
2022/10/19 20:55:23;;;;;;;32.08;22.17;;;;;;;10.02;100.00;99806.97;10537055;28;20122;-69
2022/10/19 21:00:24;;;;;;;33.05;21.67;;;;;;;10.52;100.00;99895.88;10536809;28;20048;-69
2022/10/19 21:05:24;;;;;;;36.38;22.05;;;;;;;10.02;100.00;99799.88;10541868;28;20142;-69
2022/10/19 21:10:25;;;;;;;39.75;23.40;;;;;;;10.64;100.00;99875.03;10545786;28;20044;-69
2022/10/19 21:15:26;;;;;;;32.47;22.25;;;;;;;10.69;100.00;99872.69;10545033;28;20492;-70
2022/10/19 21:20:27;;;;;;;36.97;23.52;;;;;;;10.64;100.00;99865.22;10545581;28;20044;-69
2022/10/19 21:25:29;;;;;;;34.13;22.00;;;;;;;10.20;100.00;99790.75;10544659;28;20522;-69
2022/10/19 21:30:29;;;;;;;91.45;24.70;;;;;;;10.25;100.00;99797.16;10545006;28;20200;-69
2022/10/19 21:35:30;;;;;;;175.57;27.15;;;;;;;10.47;100.00;99829.22;10544145;28;20188;-69
2022/10/19 21:40:35;;;;;;;84.95;24.40;;;;;;;10.44;100.00;99811.81;10544695;28;20047;-69
2022/10/19 21:45:38;;;;;;;102.72;21.08;;;;;;;10.12;100.00;99766.94;10544470;28;20098;-69
2022/10/19 21:50:39;;;;;;;104.93;24.80;;;;;;;10.57;100.00;99842.25;10544124;28;20044;-69
2022/10/19 21:55:40;;;;;;;27.35;18.15;;;;;;;10.28;100.00;99796.03;10544087;28;20036;-70
2022/10/19 22:00:41;;;;;;;48.67;20.83;;;;;;;10.35;100.00;99814.72;10543502;28;20389;-70
2022/10/19 22:05:50;;;;;;;85.15;22.35;;;;;;;10.34;100.00;99811.22;10542047;28;20056;-69
2022/10/19 22:10:51;;;;;;;77.25;22.42;;;;;;;10.54;100.00;99840.78;10542167;28;20518;-70
2022/10/19 22:15:52;;;;;;;104.70;21.23;;;;;;;10.51;100.00;99841.13;10542305;28;20040;-70
2022/10/19 22:20:53;;;;;;;45.22;21.77;;;;;;;10.07;100.00;99762.97;10542889;28;20435;-70
2022/10/19 22:25:54;;;;;;;54.70;21.60;;;;;;;10.59;100.00;99827.78;10543557;28;20092;-70
2022/10/19 22:30:56;;;;;;;50.58;21.27;;;;;;;10.44;100.00;99803.84;10542186;28;20071;-70
2022/10/19 22:35:59;;;;;;;41.75;21.83;;;;;;;10.62;100.00;99837.19;10541579;28;20040;-70
2022/10/19 22:41:00;;;;;;;38.05;18.67;;;;;;;10.33;100.00;99775.06;10542103;28;20071;-69
2022/10/19 22:46:00;;;;;;;38.22;18.17;;;;;;;10.05;100.00;99735.81;10542317;28;20039;-70
2022/10/19 22:51:01;;;;;;;45.75;21.10;;;;;;;10.37;100.00;99786.16;10542358;28;20381;-70
2022/10/19 22:56:03;;;;;;;44.22;20.77;;;;;;;10.67;100.00;99824.22;10540826;28;20050;-69